sensor_id;sensor_type;location;lat;lon;timestamp;temperature;humidity
42907;DHT22;28552;51.146;6.576;2023-07-31T00:00:32;16.40;99.90
42907;DHT22;28552;51.146;6.576;2023-07-31T00:03:32;16.40;99.90
42907;DHT22;28552;51.146;6.576;2023-07-31T00:06:33;16.30;99.90
42907;DHT22;28552;51.146;6.576;2023-07-31T00:09:33;16.30;99.90
42907;DHT22;28552;51.146;6.576;2023-07-31T00:12:34;16.40;99.90
42907;DHT22;28552;51.146;6.576;2023-07-31T00:15:34;16.30;99.90
42907;DHT22;28552;51.146;6.576;2023-07-31T00:18:35;16.30;99.90
42907;DHT22;28552;51.146;6.576;2023-07-31T00:21:35;16.30;99.90
42907;DHT22;28552;51.146;6.576;2023-07-31T00:24:36;16.40;99.90
42907;DHT22;28552;51.146;6.576;2023-07-31T00:27:36;16.30;99.90
42907;DHT22;28552;51.146;6.576;2023-07-31T00:30:37;16.40;99.90
42907;DHT22;28552;51.146;6.576;2023-07-31T00:33:38;16.40;99.90
42907;DHT22;28552;51.146;6.576;2023-07-31T00:36:39;16.40;99.90
42907;DHT22;28552;51.146;6.576;2023-07-31T00:39:39;16.40;99.90
42907;DHT22;28552;51.146;6.576;2023-07-31T00:42:40;16.40;99.90
42907;DHT22;28552;51.146;6.576;2023-07-31T00:45:40;16.40;99.90
42907;DHT22;28552;51.146;6.576;2023-07-31T00:48:41;16.40;99.90
42907;DHT22;28552;51.146;6.576;2023-07-31T00:51:42;16.40;99.90
42907;DHT22;28552;51.146;6.576;2023-07-31T00:54:42;16.40;99.90
42907;DHT22;28552;51.146;6.576;2023-07-31T00:57:44;16.40;99.90
42907;DHT22;28552;51.146;6.576;2023-07-31T01:00:45;16.40;99.90
42907;DHT22;28552;51.146;6.576;2023-07-31T01:03:46;16.40;99.90
42907;DHT22;28552;51.146;6.576;2023-07-31T01:10:08;16.40;99.90
42907;DHT22;28552;51.146;6.576;2023-07-31T01:13:11;16.40;99.90
42907;DHT22;28552;51.146;6.576;2023-07-31T01:16:12;16.40;99.90
42907;DHT22;28552;51.146;6.576;2023-07-31T01:19:14;16.40;99.90
42907;DHT22;28552;51.146;6.576;2023-07-31T01:25:54;16.50;99.90
42907;DHT22;28552;51.146;6.576;2023-07-31T01:32:02;16.50;99.90
42907;DHT22;28552;51.146;6.576;2023-07-31T01:35:04;16.50;99.90
42907;DHT22;28552;51.146;6.576;2023-07-31T01:38:05;16.40;99.90
42907;DHT22;28552;51.146;6.576;2023-07-31T01:41:06;16.40;99.90
42907;DHT22;28552;51.146;6.576;2023-07-31T01:44:06;16.40;99.90
42907;DHT22;28552;51.146;6.576;2023-07-31T01:47:07;16.40;99.90
42907;DHT22;28552;51.146;6.576;2023-07-31T01:50:07;16.40;99.90
42907;DHT22;28552;51.146;6.576;2023-07-31T01:53:08;16.40;99.90
42907;DHT22;28552;51.146;6.576;2023-07-31T01:56:09;16.50;99.90
42907;DHT22;28552;51.146;6.576;2023-07-31T01:59:09;16.40;99.90
42907;DHT22;28552;51.146;6.576;2023-07-31T02:02:10;16.50;99.90
42907;DHT22;28552;51.146;6.576;2023-07-31T02:05:10;16.50;99.90
42907;DHT22;28552;51.146;6.576;2023-07-31T02:08:11;16.50;99.90
42907;DHT22;28552;51.146;6.576;2023-07-31T02:11:12;16.50;99.90
42907;DHT22;28552;51.146;6.576;2023-07-31T02:14:12;16.50;99.90
42907;DHT22;28552;51.146;6.576;2023-07-31T02:17:13;16.50;99.90
42907;DHT22;28552;51.146;6.576;2023-07-31T02:20:13;16.50;99.90
42907;DHT22;28552;51.146;6.576;2023-07-31T02:23:14;16.50;99.90
42907;DHT22;28552;51.146;6.576;2023-07-31T02:26:14;16.50;99.90
42907;DHT22;28552;51.146;6.576;2023-07-31T02:29:15;16.60;99.90
42907;DHT22;28552;51.146;6.576;2023-07-31T02:32:15;16.60;99.90
42907;DHT22;28552;51.146;6.576;2023-07-31T02:35:16;16.60;99.90
42907;DHT22;28552;51.146;6.576;2023-07-31T02:38:16;16.60;99.90
42907;DHT22;28552;51.146;6.576;2023-07-31T02:41:17;16.60;99.90
42907;DHT22;28552;51.146;6.576;2023-07-31T02:44:17;16.60;99.90
42907;DHT22;28552;51.146;6.576;2023-07-31T02:47:18;16.60;99.90
42907;DHT22;28552;51.146;6.576;2023-07-31T02:50:18;16.70;99.90
42907;DHT22;28552;51.146;6.576;2023-07-31T02:53:19;16.70;99.90
42907;DHT22;28552;51.146;6.576;2023-07-31T02:56:20;16.70;99.90
42907;DHT22;28552;51.146;6.576;2023-07-31T02:59:20;16.70;99.90
42907;DHT22;28552;51.146;6.576;2023-07-31T03:02:21;16.80;99.90
42907;DHT22;28552;51.146;6.576;2023-07-31T03:05:21;16.80;99.90
42907;DHT22;28552;51.146;6.576;2023-07-31T03:08:22;16.80;99.90
42907;DHT22;28552;51.146;6.576;2023-07-31T03:11:22;16.80;99.90
42907;DHT22;28552;51.146;6.576;2023-07-31T03:14:23;16.80;99.90
42907;DHT22;28552;51.146;6.576;2023-07-31T03:17:24;16.80;99.90
42907;DHT22;28552;51.146;6.576;2023-07-31T03:20:24;16.80;99.90
42907;DHT22;28552;51.146;6.576;2023-07-31T03:23:25;16.80;99.90
42907;DHT22;28552;51.146;6.576;2023-07-31T03:26:26;16.80;99.90
42907;DHT22;28552;51.146;6.576;2023-07-31T03:29:26;16.80;99.90
42907;DHT22;28552;51.146;6.576;2023-07-31T03:32:27;16.80;99.90
42907;DHT22;28552;51.146;6.576;2023-07-31T03:35:27;16.80;99.90
42907;DHT22;28552;51.146;6.576;2023-07-31T03:38:28;16.80;99.90
42907;DHT22;28552;51.146;6.576;2023-07-31T03:41:29;16.80;99.90
42907;DHT22;28552;51.146;6.576;2023-07-31T03:44:29;16.80;99.90
42907;DHT22;28552;51.146;6.576;2023-07-31T03:47:30;16.80;99.90
42907;DHT22;28552;51.146;6.576;2023-07-31T03:50:31;16.90;99.90
42907;DHT22;28552;51.146;6.576;2023-07-31T03:53:31;16.90;99.90
42907;DHT22;28552;51.146;6.576;2023-07-31T03:56:32;16.90;99.90
42907;DHT22;28552;51.146;6.576;2023-07-31T03:59:32;16.90;99.90
42907;DHT22;28552;51.146;6.576;2023-07-31T04:02:33;16.90;99.90
42907;DHT22;28552;51.146;6.576;2023-07-31T04:05:33;16.90;99.90
42907;DHT22;28552;51.146;6.576;2023-07-31T04:08:38;16.90;99.90
42907;DHT22;28552;51.146;6.576;2023-07-31T04:11:38;16.90;99.90
42907;DHT22;28552;51.146;6.576;2023-07-31T04:14:39;16.90;99.90
42907;DHT22;28552;51.146;6.576;2023-07-31T04:17:40;16.90;99.90
42907;DHT22;28552;51.146;6.576;2023-07-31T04:20:40;16.90;99.90
42907;DHT22;28552;51.146;6.576;2023-07-31T04:23:41;16.90;99.90
42907;DHT22;28552;51.146;6.576;2023-07-31T04:26:41;16.90;99.90
42907;DHT22;28552;51.146;6.576;2023-07-31T04:29:42;16.90;99.90
42907;DHT22;28552;51.146;6.576;2023-07-31T04:32:44;16.90;99.90
42907;DHT22;28552;51.146;6.576;2023-07-31T04:35:53;16.90;99.90
42907;DHT22;28552;51.146;6.576;2023-07-31T04:38:53;16.90;99.90
42907;DHT22;28552;51.146;6.576;2023-07-31T04:41:54;17.00;99.90
42907;DHT22;28552;51.146;6.576;2023-07-31T04:44:55;17.00;99.90
42907;DHT22;28552;51.146;6.576;2023-07-31T04:47:55;17.00;99.90
42907;DHT22;28552;51.146;6.576;2023-07-31T04:50:56;17.10;99.90
42907;DHT22;28552;51.146;6.576;2023-07-31T04:53:56;17.10;99.90
42907;DHT22;28552;51.146;6.576;2023-07-31T04:56:57;17.10;99.90
42907;DHT22;28552;51.146;6.576;2023-07-31T04:59:57;17.20;99.90
42907;DHT22;28552;51.146;6.576;2023-07-31T05:02:58;17.20;99.90
42907;DHT22;28552;51.146;6.576;2023-07-31T05:05:58;17.30;99.90
42907;DHT22;28552;51.146;6.576;2023-07-31T05:08:59;17.30;99.90
42907;DHT22;28552;51.146;6.576;2023-07-31T05:11:59;17.30;99.90
42907;DHT22;28552;51.146;6.576;2023-07-31T05:15:00;17.30;99.90
42907;DHT22;28552;51.146;6.576;2023-07-31T05:18:01;17.30;99.90
42907;DHT22;28552;51.146;6.576;2023-07-31T05:21:01;17.30;99.90
42907;DHT22;28552;51.146;6.576;2023-07-31T05:24:02;17.30;99.90
42907;DHT22;28552;51.146;6.576;2023-07-31T05:27:03;17.40;99.90
42907;DHT22;28552;51.146;6.576;2023-07-31T05:30:05;17.40;99.90
42907;DHT22;28552;51.146;6.576;2023-07-31T05:33:05;17.40;99.90
42907;DHT22;28552;51.146;6.576;2023-07-31T05:36:06;17.40;99.90
42907;DHT22;28552;51.146;6.576;2023-07-31T05:39:08;17.50;99.90
42907;DHT22;28552;51.146;6.576;2023-07-31T05:42:08;17.40;99.90
42907;DHT22;28552;51.146;6.576;2023-07-31T05:45:09;17.40;99.90
42907;DHT22;28552;51.146;6.576;2023-07-31T05:48:10;17.40;99.90
42907;DHT22;28552;51.146;6.576;2023-07-31T05:51:11;17.40;99.90
42907;DHT22;28552;51.146;6.576;2023-07-31T05:54:11;17.40;99.90
42907;DHT22;28552;51.146;6.576;2023-07-31T05:57:12;17.40;99.90
42907;DHT22;28552;51.146;6.576;2023-07-31T06:00:13;17.30;99.90
42907;DHT22;28552;51.146;6.576;2023-07-31T06:03:14;17.20;99.90
42907;DHT22;28552;51.146;6.576;2023-07-31T06:06:14;17.20;99.90
42907;DHT22;28552;51.146;6.576;2023-07-31T06:09:15;17.10;99.90
42907;DHT22;28552;51.146;6.576;2023-07-31T06:12:15;17.00;99.90
42907;DHT22;28552;51.146;6.576;2023-07-31T06:15:19;17.00;99.90
42907;DHT22;28552;51.146;6.576;2023-07-31T06:18:19;16.90;99.90
42907;DHT22;28552;51.146;6.576;2023-07-31T06:21:20;16.90;99.90
42907;DHT22;28552;51.146;6.576;2023-07-31T06:24:21;16.90;99.90
42907;DHT22;28552;51.146;6.576;2023-07-31T06:27:22;16.90;99.90
42907;DHT22;28552;51.146;6.576;2023-07-31T06:30:22;16.90;99.90
42907;DHT22;28552;51.146;6.576;2023-07-31T06:33:23;17.00;99.90
42907;DHT22;28552;51.146;6.576;2023-07-31T06:36:24;17.00;99.90
42907;DHT22;28552;51.146;6.576;2023-07-31T06:39:24;17.00;99.90
42907;DHT22;28552;51.146;6.576;2023-07-31T06:42:25;17.10;99.90
42907;DHT22;28552;51.146;6.576;2023-07-31T06:45:26;17.10;99.90
42907;DHT22;28552;51.146;6.576;2023-07-31T06:48:26;17.20;99.90
42907;DHT22;28552;51.146;6.576;2023-07-31T06:51:27;17.20;99.90
42907;DHT22;28552;51.146;6.576;2023-07-31T06:54:27;17.20;99.90
42907;DHT22;28552;51.146;6.576;2023-07-31T06:57:28;17.20;99.90
42907;DHT22;28552;51.146;6.576;2023-07-31T07:00:28;17.20;99.90
42907;DHT22;28552;51.146;6.576;2023-07-31T07:03:29;17.20;99.90
42907;DHT22;28552;51.146;6.576;2023-07-31T07:06:29;17.20;99.90
42907;DHT22;28552;51.146;6.576;2023-07-31T07:09:30;17.20;99.90
42907;DHT22;28552;51.146;6.576;2023-07-31T07:12:31;17.20;99.90
42907;DHT22;28552;51.146;6.576;2023-07-31T07:15:33;17.20;99.90
42907;DHT22;28552;51.146;6.576;2023-07-31T07:18:33;17.20;99.90
42907;DHT22;28552;51.146;6.576;2023-07-31T07:21:34;17.10;99.90
42907;DHT22;28552;51.146;6.576;2023-07-31T07:24:34;17.20;99.90
42907;DHT22;28552;51.146;6.576;2023-07-31T07:27:35;17.10;99.90
42907;DHT22;28552;51.146;6.576;2023-07-31T07:30:36;17.10;99.90
42907;DHT22;28552;51.146;6.576;2023-07-31T07:33:36;17.10;99.90
42907;DHT22;28552;51.146;6.576;2023-07-31T07:36:37;17.00;99.90
42907;DHT22;28552;51.146;6.576;2023-07-31T07:39:37;17.00;99.90
42907;DHT22;28552;51.146;6.576;2023-07-31T07:42:38;16.90;99.90
42907;DHT22;28552;51.146;6.576;2023-07-31T07:45:39;16.90;99.90
42907;DHT22;28552;51.146;6.576;2023-07-31T07:48:39;16.90;99.90
42907;DHT22;28552;51.146;6.576;2023-07-31T07:51:40;16.90;99.90
42907;DHT22;28552;51.146;6.576;2023-07-31T07:54:40;16.90;99.90
42907;DHT22;28552;51.146;6.576;2023-07-31T07:57:41;16.80;99.90
42907;DHT22;28552;51.146;6.576;2023-07-31T08:00:41;16.80;99.90
42907;DHT22;28552;51.146;6.576;2023-07-31T08:03:42;16.80;99.90
42907;DHT22;28552;51.146;6.576;2023-07-31T08:06:43;16.80;99.90
42907;DHT22;28552;51.146;6.576;2023-07-31T08:09:43;16.80;99.90
42907;DHT22;28552;51.146;6.576;2023-07-31T08:12:44;16.80;99.90
42907;DHT22;28552;51.146;6.576;2023-07-31T08:15:44;16.90;99.90
42907;DHT22;28552;51.146;6.576;2023-07-31T08:18:45;16.90;99.90
42907;DHT22;28552;51.146;6.576;2023-07-31T08:21:45;17.00;99.90
42907;DHT22;28552;51.146;6.576;2023-07-31T08:24:46;17.00;99.90
42907;DHT22;28552;51.146;6.576;2023-07-31T08:27:46;17.00;99.90
42907;DHT22;28552;51.146;6.576;2023-07-31T08:30:47;17.00;99.90
42907;DHT22;28552;51.146;6.576;2023-07-31T08:33:47;17.00;99.90
42907;DHT22;28552;51.146;6.576;2023-07-31T08:36:48;17.00;99.90
42907;DHT22;28552;51.146;6.576;2023-07-31T08:39:48;17.00;99.90
42907;DHT22;28552;51.146;6.576;2023-07-31T08:42:54;16.90;99.90
42907;DHT22;28552;51.146;6.576;2023-07-31T08:45:57;17.00;99.90
42907;DHT22;28552;51.146;6.576;2023-07-31T08:48:58;17.00;99.90
42907;DHT22;28552;51.146;6.576;2023-07-31T08:51:59;17.00;99.90
42907;DHT22;28552;51.146;6.576;2023-07-31T08:55:00;17.00;99.90
42907;DHT22;28552;51.146;6.576;2023-07-31T08:58:01;17.00;99.90
42907;DHT22;28552;51.146;6.576;2023-07-31T09:01:04;17.00;99.90
42907;DHT22;28552;51.146;6.576;2023-07-31T09:04:06;17.00;99.90
42907;DHT22;28552;51.146;6.576;2023-07-31T09:07:08;17.00;99.90
42907;DHT22;28552;51.146;6.576;2023-07-31T09:10:09;17.00;99.90
42907;DHT22;28552;51.146;6.576;2023-07-31T09:13:10;17.00;99.90
42907;DHT22;28552;51.146;6.576;2023-07-31T09:16:11;17.10;99.90
42907;DHT22;28552;51.146;6.576;2023-07-31T09:19:12;17.10;99.90
42907;DHT22;28552;51.146;6.576;2023-07-31T09:22:13;17.10;99.90
42907;DHT22;28552;51.146;6.576;2023-07-31T09:25:19;17.20;99.90
42907;DHT22;28552;51.146;6.576;2023-07-31T09:28:20;17.20;99.90
42907;DHT22;28552;51.146;6.576;2023-07-31T09:31:33;17.20;99.90
42907;DHT22;28552;51.146;6.576;2023-07-31T09:34:38;17.20;99.90
42907;DHT22;28552;51.146;6.576;2023-07-31T09:37:39;17.20;99.90
42907;DHT22;28552;51.146;6.576;2023-07-31T09:40:42;17.20;99.90
42907;DHT22;28552;51.146;6.576;2023-07-31T09:43:53;17.30;99.90
42907;DHT22;28552;51.146;6.576;2023-07-31T09:46:54;17.30;99.90
42907;DHT22;28552;51.146;6.576;2023-07-31T09:49:54;17.30;99.90
42907;DHT22;28552;51.146;6.576;2023-07-31T09:52:55;17.20;99.90
42907;DHT22;28552;51.146;6.576;2023-07-31T09:55:58;17.20;99.90
42907;DHT22;28552;51.146;6.576;2023-07-31T09:58:59;17.20;99.90
42907;DHT22;28552;51.146;6.576;2023-07-31T10:01:59;17.30;99.90
42907;DHT22;28552;51.146;6.576;2023-07-31T10:05:02;17.20;99.90
42907;DHT22;28552;51.146;6.576;2023-07-31T10:08:04;17.20;99.90
42907;DHT22;28552;51.146;6.576;2023-07-31T10:11:07;17.20;99.90
42907;DHT22;28552;51.146;6.576;2023-07-31T10:14:10;17.20;99.90
42907;DHT22;28552;51.146;6.576;2023-07-31T10:17:11;17.30;99.90
42907;DHT22;28552;51.146;6.576;2023-07-31T10:20:12;17.30;99.90
42907;DHT22;28552;51.146;6.576;2023-07-31T10:23:14;17.30;99.90
42907;DHT22;28552;51.146;6.576;2023-07-31T10:26:17;17.50;99.90
42907;DHT22;28552;51.146;6.576;2023-07-31T10:29:20;17.60;99.90
42907;DHT22;28552;51.146;6.576;2023-07-31T10:32:22;17.70;99.90
42907;DHT22;28552;51.146;6.576;2023-07-31T10:35:24;17.90;99.90
42907;DHT22;28552;51.146;6.576;2023-07-31T10:38:25;17.90;99.90
42907;DHT22;28552;51.146;6.576;2023-07-31T10:41:30;18.10;99.90
42907;DHT22;28552;51.146;6.576;2023-07-31T10:44:32;18.10;99.90
42907;DHT22;28552;51.146;6.576;2023-07-31T10:47:48;18.10;99.90
42907;DHT22;28552;51.146;6.576;2023-07-31T10:50:50;18.10;99.90
42907;DHT22;28552;51.146;6.576;2023-07-31T10:54:10;18.10;99.90
42907;DHT22;28552;51.146;6.576;2023-07-31T10:57:26;18.00;99.90
42907;DHT22;28552;51.146;6.576;2023-07-31T11:00:38;18.00;99.90
42907;DHT22;28552;51.146;6.576;2023-07-31T11:03:56;18.10;99.90
42907;DHT22;28552;51.146;6.576;2023-07-31T11:06:57;18.20;99.90
42907;DHT22;28552;51.146;6.576;2023-07-31T11:09:58;18.20;99.90
42907;DHT22;28552;51.146;6.576;2023-07-31T11:12:59;18.30;99.90
42907;DHT22;28552;51.146;6.576;2023-07-31T11:16:00;18.50;99.90
42907;DHT22;28552;51.146;6.576;2023-07-31T11:19:01;18.60;99.90
42907;DHT22;28552;51.146;6.576;2023-07-31T11:22:01;18.70;99.90
42907;DHT22;28552;51.146;6.576;2023-07-31T11:25:03;18.80;99.90
42907;DHT22;28552;51.146;6.576;2023-07-31T11:28:06;18.80;99.90
42907;DHT22;28552;51.146;6.576;2023-07-31T11:31:09;18.80;99.90
42907;DHT22;28552;51.146;6.576;2023-07-31T11:34:10;18.70;99.90
42907;DHT22;28552;51.146;6.576;2023-07-31T11:37:10;18.70;99.90
42907;DHT22;28552;51.146;6.576;2023-07-31T11:40:11;18.70;99.90
42907;DHT22;28552;51.146;6.576;2023-07-31T11:43:12;18.70;99.90
42907;DHT22;28552;51.146;6.576;2023-07-31T11:46:17;18.70;99.90
42907;DHT22;28552;51.146;6.576;2023-07-31T11:49:18;18.70;99.90
42907;DHT22;28552;51.146;6.576;2023-07-31T11:52:19;18.70;99.90
42907;DHT22;28552;51.146;6.576;2023-07-31T11:55:20;18.70;99.90
42907;DHT22;28552;51.146;6.576;2023-07-31T11:58:22;18.70;99.90
42907;DHT22;28552;51.146;6.576;2023-07-31T12:01:22;18.70;99.90
42907;DHT22;28552;51.146;6.576;2023-07-31T12:04:24;18.70;99.90
42907;DHT22;28552;51.146;6.576;2023-07-31T12:07:25;18.70;99.90
42907;DHT22;28552;51.146;6.576;2023-07-31T12:10:31;18.70;99.90
42907;DHT22;28552;51.146;6.576;2023-07-31T12:13:32;18.60;99.90
42907;DHT22;28552;51.146;6.576;2023-07-31T12:16:33;18.60;99.90
42907;DHT22;28552;51.146;6.576;2023-07-31T12:19:34;18.70;99.90
42907;DHT22;28552;51.146;6.576;2023-07-31T12:22:35;18.60;99.90
42907;DHT22;28552;51.146;6.576;2023-07-31T12:25:36;18.70;99.90
42907;DHT22;28552;51.146;6.576;2023-07-31T12:28:38;18.60;99.90
42907;DHT22;28552;51.146;6.576;2023-07-31T12:31:41;18.50;99.90
42907;DHT22;28552;51.146;6.576;2023-07-31T12:34:43;18.50;99.90
42907;DHT22;28552;51.146;6.576;2023-07-31T12:37:44;18.60;99.90
42907;DHT22;28552;51.146;6.576;2023-07-31T12:40:44;18.70;99.90
42907;DHT22;28552;51.146;6.576;2023-07-31T12:43:45;18.90;99.90
42907;DHT22;28552;51.146;6.576;2023-07-31T12:46:46;18.90;99.90
42907;DHT22;28552;51.146;6.576;2023-07-31T12:49:47;19.10;99.90
42907;DHT22;28552;51.146;6.576;2023-07-31T12:52:48;19.10;99.90
42907;DHT22;28552;51.146;6.576;2023-07-31T12:55:48;19.30;99.90
42907;DHT22;28552;51.146;6.576;2023-07-31T12:58:49;19.30;99.90
42907;DHT22;28552;51.146;6.576;2023-07-31T13:01:49;19.50;99.90
42907;DHT22;28552;51.146;6.576;2023-07-31T13:04:50;19.50;99.90
42907;DHT22;28552;51.146;6.576;2023-07-31T13:07:51;19.50;99.90
42907;DHT22;28552;51.146;6.576;2023-07-31T13:10:51;19.50;99.90
42907;DHT22;28552;51.146;6.576;2023-07-31T13:13:52;19.60;99.90
42907;DHT22;28552;51.146;6.576;2023-07-31T13:16:52;19.60;99.90
42907;DHT22;28552;51.146;6.576;2023-07-31T13:19:53;19.70;99.90
42907;DHT22;28552;51.146;6.576;2023-07-31T13:22:54;19.80;99.90
42907;DHT22;28552;51.146;6.576;2023-07-31T13:25:54;19.90;99.90
42907;DHT22;28552;51.146;6.576;2023-07-31T13:28:55;20.00;99.90
42907;DHT22;28552;51.146;6.576;2023-07-31T13:31:55;20.10;99.90
42907;DHT22;28552;51.146;6.576;2023-07-31T13:34:56;20.20;99.90
42907;DHT22;28552;51.146;6.576;2023-07-31T13:37:56;20.30;99.90
42907;DHT22;28552;51.146;6.576;2023-07-31T13:40:57;20.30;99.90
42907;DHT22;28552;51.146;6.576;2023-07-31T13:43:58;20.30;99.90
42907;DHT22;28552;51.146;6.576;2023-07-31T13:46:59;20.40;99.90
42907;DHT22;28552;51.146;6.576;2023-07-31T13:49:59;20.50;99.90
42907;DHT22;28552;51.146;6.576;2023-07-31T13:53:00;20.60;99.90
42907;DHT22;28552;51.146;6.576;2023-07-31T13:56:00;20.50;99.90
42907;DHT22;28552;51.146;6.576;2023-07-31T13:59:01;20.40;99.90
42907;DHT22;28552;51.146;6.576;2023-07-31T14:02:02;20.30;99.90
42907;DHT22;28552;51.146;6.576;2023-07-31T14:05:03;20.20;99.90
42907;DHT22;28552;51.146;6.576;2023-07-31T14:08:04;20.10;99.90
42907;DHT22;28552;51.146;6.576;2023-07-31T14:11:05;20.00;99.90
42907;DHT22;28552;51.146;6.576;2023-07-31T14:14:05;19.90;99.90
42907;DHT22;28552;51.146;6.576;2023-07-31T14:17:06;19.80;99.90
42907;DHT22;28552;51.146;6.576;2023-07-31T14:20:07;19.70;99.90
42907;DHT22;28552;51.146;6.576;2023-07-31T14:23:07;19.60;99.90
42907;DHT22;28552;51.146;6.576;2023-07-31T14:26:08;19.50;99.90
42907;DHT22;28552;51.146;6.576;2023-07-31T14:29:09;19.40;99.90
42907;DHT22;28552;51.146;6.576;2023-07-31T14:32:10;19.40;99.90
42907;DHT22;28552;51.146;6.576;2023-07-31T14:35:10;19.40;99.90
42907;DHT22;28552;51.146;6.576;2023-07-31T14:38:15;19.50;99.90
42907;DHT22;28552;51.146;6.576;2023-07-31T14:41:15;19.50;99.90
42907;DHT22;28552;51.146;6.576;2023-07-31T14:44:16;19.50;99.90
42907;DHT22;28552;51.146;6.576;2023-07-31T14:47:17;19.60;99.90
42907;DHT22;28552;51.146;6.576;2023-07-31T14:50:17;19.70;99.90
42907;DHT22;28552;51.146;6.576;2023-07-31T14:53:18;19.80;99.90
42907;DHT22;28552;51.146;6.576;2023-07-31T14:56:19;19.80;99.90
42907;DHT22;28552;51.146;6.576;2023-07-31T14:59:19;19.70;99.90
42907;DHT22;28552;51.146;6.576;2023-07-31T15:02:20;19.70;99.90
42907;DHT22;28552;51.146;6.576;2023-07-31T15:05:20;19.70;99.90
42907;DHT22;28552;51.146;6.576;2023-07-31T15:08:21;19.70;99.90
42907;DHT22;28552;51.146;6.576;2023-07-31T15:11:21;19.70;99.90
42907;DHT22;28552;51.146;6.576;2023-07-31T15:14:22;19.80;99.90
42907;DHT22;28552;51.146;6.576;2023-07-31T15:17:23;19.80;99.90
42907;DHT22;28552;51.146;6.576;2023-07-31T15:20:24;19.80;99.90
42907;DHT22;28552;51.146;6.576;2023-07-31T15:23:24;19.80;99.90
42907;DHT22;28552;51.146;6.576;2023-07-31T15:26:26;19.80;99.90
42907;DHT22;28552;51.146;6.576;2023-07-31T15:29:27;19.70;99.90
42907;DHT22;28552;51.146;6.576;2023-07-31T15:32:29;19.70;99.90
42907;DHT22;28552;51.146;6.576;2023-07-31T15:35:29;19.60;99.90
42907;DHT22;28552;51.146;6.576;2023-07-31T15:38:32;19.60;99.90
42907;DHT22;28552;51.146;6.576;2023-07-31T15:41:32;19.60;99.90
42907;DHT22;28552;51.146;6.576;2023-07-31T15:44:33;19.60;99.90
42907;DHT22;28552;51.146;6.576;2023-07-31T15:47:34;19.60;99.90
42907;DHT22;28552;51.146;6.576;2023-07-31T15:50:34;19.50;99.90
42907;DHT22;28552;51.146;6.576;2023-07-31T15:53:35;19.50;99.90
42907;DHT22;28552;51.146;6.576;2023-07-31T15:56:36;19.40;99.90
42907;DHT22;28552;51.146;6.576;2023-07-31T15:59:36;19.40;99.90
42907;DHT22;28552;51.146;6.576;2023-07-31T16:02:37;19.30;99.90
42907;DHT22;28552;51.146;6.576;2023-07-31T16:05:38;19.30;99.90
42907;DHT22;28552;51.146;6.576;2023-07-31T16:08:38;19.30;99.90
42907;DHT22;28552;51.146;6.576;2023-07-31T16:11:41;19.20;99.90
42907;DHT22;28552;51.146;6.576;2023-07-31T16:14:43;19.20;99.90
42907;DHT22;28552;51.146;6.576;2023-07-31T16:17:43;19.20;99.90
42907;DHT22;28552;51.146;6.576;2023-07-31T16:20:44;19.10;99.90
42907;DHT22;28552;51.146;6.576;2023-07-31T16:23:44;19.10;99.90
42907;DHT22;28552;51.146;6.576;2023-07-31T16:26:45;19.00;99.90
42907;DHT22;28552;51.146;6.576;2023-07-31T16:29:46;18.90;99.90
42907;DHT22;28552;51.146;6.576;2023-07-31T16:32:46;18.90;99.90
42907;DHT22;28552;51.146;6.576;2023-07-31T16:35:47;18.80;99.90
42907;DHT22;28552;51.146;6.576;2023-07-31T16:38:48;18.70;99.90
42907;DHT22;28552;51.146;6.576;2023-07-31T16:41:50;18.60;99.90
42907;DHT22;28552;51.146;6.576;2023-07-31T16:44:50;18.50;99.90
42907;DHT22;28552;51.146;6.576;2023-07-31T16:47:51;18.50;99.90
42907;DHT22;28552;51.146;6.576;2023-07-31T16:50:51;18.40;99.90
42907;DHT22;28552;51.146;6.576;2023-07-31T16:53:52;18.40;99.90
42907;DHT22;28552;51.146;6.576;2023-07-31T16:56:52;18.30;99.90
42907;DHT22;28552;51.146;6.576;2023-07-31T16:59:53;18.40;99.90
42907;DHT22;28552;51.146;6.576;2023-07-31T17:02:54;18.40;99.90
42907;DHT22;28552;51.146;6.576;2023-07-31T17:05:54;18.40;99.90
42907;DHT22;28552;51.146;6.576;2023-07-31T17:08:55;18.40;99.90
42907;DHT22;28552;51.146;6.576;2023-07-31T17:11:58;18.40;99.90
42907;DHT22;28552;51.146;6.576;2023-07-31T17:14:58;18.30;99.90
42907;DHT22;28552;51.146;6.576;2023-07-31T17:17:59;18.30;99.90
42907;DHT22;28552;51.146;6.576;2023-07-31T17:20:59;18.20;99.90
42907;DHT22;28552;51.146;6.576;2023-07-31T17:24:00;18.10;99.90
42907;DHT22;28552;51.146;6.576;2023-07-31T17:27:02;18.00;99.90
42907;DHT22;28552;51.146;6.576;2023-07-31T17:30:02;17.90;99.90
42907;DHT22;28552;51.146;6.576;2023-07-31T17:33:03;17.80;99.90
42907;DHT22;28552;51.146;6.576;2023-07-31T17:36:03;17.80;99.90
42907;DHT22;28552;51.146;6.576;2023-07-31T17:39:04;17.70;99.90
42907;DHT22;28552;51.146;6.576;2023-07-31T17:42:05;17.60;99.90
42907;DHT22;28552;51.146;6.576;2023-07-31T17:45:05;17.60;99.90
42907;DHT22;28552;51.146;6.576;2023-07-31T17:48:06;17.50;99.90
42907;DHT22;28552;51.146;6.576;2023-07-31T17:51:08;17.50;99.90
42907;DHT22;28552;51.146;6.576;2023-07-31T17:54:09;17.50;99.90
42907;DHT22;28552;51.146;6.576;2023-07-31T17:57:10;17.40;99.90
42907;DHT22;28552;51.146;6.576;2023-07-31T18:00:11;17.30;99.90
42907;DHT22;28552;51.146;6.576;2023-07-31T18:03:11;17.30;99.90
42907;DHT22;28552;51.146;6.576;2023-07-31T18:06:12;17.30;99.90
42907;DHT22;28552;51.146;6.576;2023-07-31T18:09:13;17.30;99.90
42907;DHT22;28552;51.146;6.576;2023-07-31T18:12:13;17.20;99.90
42907;DHT22;28552;51.146;6.576;2023-07-31T18:15:14;17.30;99.90
42907;DHT22;28552;51.146;6.576;2023-07-31T18:18:15;17.30;99.90
42907;DHT22;28552;51.146;6.576;2023-07-31T18:21:16;17.20;99.90
42907;DHT22;28552;51.146;6.576;2023-07-31T18:24:16;17.20;99.90
42907;DHT22;28552;51.146;6.576;2023-07-31T18:27:17;17.20;99.90
42907;DHT22;28552;51.146;6.576;2023-07-31T18:30:18;17.20;99.90
42907;DHT22;28552;51.146;6.576;2023-07-31T18:33:19;17.20;99.90
42907;DHT22;28552;51.146;6.576;2023-07-31T18:36:19;17.20;99.90
42907;DHT22;28552;51.146;6.576;2023-07-31T18:39:20;17.20;99.90
42907;DHT22;28552;51.146;6.576;2023-07-31T18:42:20;17.20;99.90
42907;DHT22;28552;51.146;6.576;2023-07-31T18:45:21;17.10;99.90
42907;DHT22;28552;51.146;6.576;2023-07-31T18:48:22;17.10;99.90
42907;DHT22;28552;51.146;6.576;2023-07-31T18:51:23;17.10;99.90
42907;DHT22;28552;51.146;6.576;2023-07-31T18:54:23;17.10;99.90
42907;DHT22;28552;51.146;6.576;2023-07-31T18:57:24;17.10;99.90
42907;DHT22;28552;51.146;6.576;2023-07-31T19:00:25;17.10;99.90
42907;DHT22;28552;51.146;6.576;2023-07-31T19:03:25;17.00;99.90
42907;DHT22;28552;51.146;6.576;2023-07-31T19:06:26;17.00;99.90
42907;DHT22;28552;51.146;6.576;2023-07-31T19:09:29;17.00;99.90
42907;DHT22;28552;51.146;6.576;2023-07-31T19:12:29;17.00;99.90